Time;durP1;ratioP1;P1;durP2;ratioP2;P2;SDS_P1;SDS_P2;PMS_P1;PMS_P2;Temp;Humidity;BMP_temperature;BMP_pressure;BME280_temperature;BME280_humidity;BME280_pressure;Samples;Min_cycle;Max_cycle;Signal;HPM_P1;HPM_P2
2021/12/19 06:02:09;;;;;;;48.55;19.55;;;;;;;;;;5219676;23;19921;-85
2021/12/19 06:04:36;;;;;;;51.13;20.73;;;;;;;;;;5022053;28;20132;-81
2021/12/19 06:07:04;;;;;;;42.40;17.65;;;;;;;;;;5019489;28;20069;-83
2021/12/19 06:09:32;;;;;;;51.58;21.08;;;;;;;;;;5024296;28;20125;-83
2021/12/19 06:11:59;;;;;;;46.40;19.10;;;;;;;;;;5011277;28;20110;-83
2021/12/19 06:14:31;;;;;;;48.53;19.40;;;;;;;;;;5013488;28;20086;-89
2021/12/19 06:17:00;;;;;;;50.15;19.75;;;;;;;;;;5015471;28;20133;-85
2021/12/19 06:19:31;;;;;;;49.25;19.80;;;;;;;;;;5017275;28;20072;-94
2021/12/19 06:21:58;;;;;;;48.53;19.48;;;;;;;;;;5006315;28;20073;-83
2021/12/19 06:24:26;;;;;;;48.03;19.65;;;;;;;;;;5012536;28;20384;-83
2021/12/19 06:26:54;;;;;;;48.08;18.83;;;;;;;;;;5003006;28;20054;-81
2021/12/19 06:29:22;;;;;;;49.22;19.63;;;;;;;;;;5001767;28;20113;-85
2021/12/19 06:31:49;;;;;;;49.95;20.58;;;;;;;;;;5001417;28;20042;-83
2021/12/19 06:34:18;;;;;;;50.83;19.98;;;;;;;;;;5000149;28;20050;-85
2021/12/19 06:36:52;;;;;;;50.15;20.35;;;;;;;;;;4981452;28;20053;-84
2021/12/19 06:39:21;;;;;;;44.28;18.00;;;;;;;;;;4988711;28;20133;-90
2021/12/19 06:41:49;;;;;;;43.70;17.25;;;;;;;;;;4995994;28;20101;-89
2021/12/19 06:44:17;;;;;;;43.20;17.67;;;;;;;;;;5002568;28;20050;-91
2021/12/19 06:46:44;;;;;;;41.63;17.35;;;;;;;;;;4997028;28;20051;-90
2021/12/19 06:49:18;;;;;;;37.30;15.70;;;;;;;;;;5007398;28;20054;-92
2021/12/19 06:51:46;;;;;;;37.78;16.15;;;;;;;;;;4998735;28;20050;-91
2021/12/19 06:54:15;;;;;;;42.28;16.13;;;;;;;;;;5015302;28;20053;-89
2021/12/19 06:56:43;;;;;;;37.50;14.80;;;;;;;;;;5002957;28;20114;-89
2021/12/19 06:59:11;;;;;;;40.50;15.38;;;;;;;;;;4999438;28;20077;-82
2021/12/19 07:01:39;;;;;;;41.20;15.75;;;;;;;;;;5003332;28;20479;-83
2021/12/19 07:04:08;;;;;;;37.80;15.25;;;;;;;;;;5001265;28;20077;-88
2021/12/19 07:06:35;;;;;;;38.90;15.93;;;;;;;;;;4999542;28;20062;-85
2021/12/19 07:09:08;;;;;;;40.10;16.08;;;;;;;;;;5000920;28;20050;-87
2021/12/19 07:11:35;;;;;;;37.97;15.63;;;;;;;;;;5005049;28;20085;-88
2021/12/19 07:14:04;;;;;;;38.40;16.17;;;;;;;;;;5003611;28;20046;-92
2021/12/19 07:16:33;;;;;;;37.72;15.75;;;;;;;;;;5003746;28;20046;-90
2021/12/19 07:19:02;;;;;;;34.97;14.98;;;;;;;;;;5000607;28;20047;-92
2021/12/19 07:21:30;;;;;;;34.75;15.13;;;;;;;;;;4975214;28;20053;-85
2021/12/19 07:23:59;;;;;;;35.60;15.55;;;;;;;;;;4986589;28;20046;-88
2021/12/19 07:26:36;;;;;;;42.70;16.48;;;;;;;;;;5001378;28;20077;-88
2021/12/19 07:29:04;;;;;;;42.15;16.60;;;;;;;;;;4994128;28;20496;-87
2021/12/19 07:31:36;;;;;;;39.47;15.73;;;;;;;;;;4993583;28;20043;-84
2021/12/19 07:34:05;;;;;;;42.80;15.73;;;;;;;;;;4984364;28;20050;-82
2021/12/19 07:36:41;;;;;;;39.78;15.50;;;;;;;;;;4991673;28;20050;-83
2021/12/19 07:39:12;;;;;;;42.22;16.60;;;;;;;;;;4980163;28;20043;-82
2021/12/19 07:41:41;;;;;;;41.33;15.98;;;;;;;;;;4985266;28;20114;-82
2021/12/19 07:44:09;;;;;;;41.40;14.50;;;;;;;;;;5001094;28;20081;-81
2021/12/19 07:46:36;;;;;;;39.28;14.65;;;;;;;;;;4983957;28;20090;-81
2021/12/19 07:49:04;;;;;;;38.70;15.20;;;;;;;;;;4998331;28;20051;-87
2021/12/19 07:51:32;;;;;;;44.92;16.60;;;;;;;;;;4996425;28;20077;-86
2021/12/19 07:54:05;;;;;;;40.83;14.63;;;;;;;;;;4997140;28;20413;-85
2021/12/19 07:56:37;;;;;;;40.40;15.70;;;;;;;;;;4983790;28;20081;-87
2021/12/19 07:59:06;;;;;;;39.47;14.82;;;;;;;;;;4999451;28;20050;-88
2021/12/19 08:01:34;;;;;;;43.63;16.33;;;;;;;;;;5001279;28;20065;-89
2021/12/19 08:04:01;;;;;;;39.63;15.68;;;;;;;;;;4997685;28;20047;-86
2021/12/19 08:06:29;;;;;;;39.30;14.48;;;;;;;;;;4999586;28;20138;-86
2021/12/19 08:09:07;;;;;;;37.50;14.10;;;;;;;;;;4998498;28;20047;-83
2021/12/19 08:11:40;;;;;;;37.45;14.32;;;;;;;;;;4999263;28;20079;-92
2021/12/19 08:14:11;;;;;;;38.42;14.95;;;;;;;;;;5001177;28;20070;-91
2021/12/19 08:16:39;;;;;;;36.15;14.75;;;;;;;;;;5000512;28;20061;-86
2021/12/19 08:19:11;;;;;;;38.78;14.82;;;;;;;;;;5003891;28;20130;-86
2021/12/19 08:21:39;;;;;;;32.65;13.20;;;;;;;;;;5004277;28;20123;-89
2021/12/19 08:24:11;;;;;;;36.97;13.82;;;;;;;;;;5007055;28;20050;-86
2021/12/19 08:26:39;;;;;;;31.70;13.30;;;;;;;;;;4999317;28;20130;-92
2021/12/19 08:29:08;;;;;;;35.70;13.55;;;;;;;;;;5002751;28;20446;-90
2021/12/19 08:31:38;;;;;;;36.55;13.50;;;;;;;;;;5003059;28;20073;-91
2021/12/19 08:34:06;;;;;;;36.30;14.10;;;;;;;;;;5002759;28;20097;-87
2021/12/19 08:36:36;;;;;;;33.60;13.82;;;;;;;;;;5003475;28;20050;-94
2021/12/19 08:39:10;;;;;;;33.45;13.63;;;;;;;;;;4985457;28;20081;-89
2021/12/19 08:41:38;;;;;;;35.83;13.63;;;;;;;;;;5007122;28;20389;-83
2021/12/19 08:44:05;;;;;;;34.97;13.13;;;;;;;;;;4984002;28;20194;-91
2021/12/19 08:46:35;;;;;;;32.63;13.13;;;;;;;;;;4984809;28;20137;-85
2021/12/19 08:49:04;;;;;;;34.63;13.75;;;;;;;;;;5001003;28;20101;-83
2021/12/19 08:51:32;;;;;;;33.08;13.60;;;;;;;;;;5003269;28;20129;-84
2021/12/19 08:54:01;;;;;;;36.17;14.43;;;;;;;;;;5001629;28;20046;-81
2021/12/19 08:56:28;;;;;;;34.90;13.80;;;;;;;;;;4985192;28;20042;-79
2021/12/19 08:58:56;;;;;;;32.78;13.60;;;;;;;;;;4996954;28;20142;-81
2021/12/19 09:01:28;;;;;;;31.92;13.10;;;;;;;;;;5001143;28;20070;-79
2021/12/19 09:03:56;;;;;;;32.90;12.82;;;;;;;;;;4999890;28;20054;-80
2021/12/19 09:06:26;;;;;;;28.88;11.30;;;;;;;;;;5004700;28;20491;-91
2021/12/19 09:08:54;;;;;;;30.98;11.80;;;;;;;;;;5004958;28;20105;-89
2021/12/19 09:11:22;;;;;;;27.20;11.63;;;;;;;;;;5003569;28;20133;-86
2021/12/19 09:13:49;;;;;;;24.98;9.90;;;;;;;;;;5004231;28;20137;-89
2021/12/19 09:16:17;;;;;;;22.83;9.90;;;;;;;;;;5008295;28;20050;-80
2021/12/19 09:18:45;;;;;;;20.67;9.48;;;;;;;;;;5012074;28;20046;-81
2021/12/19 09:21:12;;;;;;;22.60;9.52;;;;;;;;;;5011292;28;20109;-80
2021/12/19 09:23:42;;;;;;;26.85;9.85;;;;;;;;;;5023133;28;20083;-79
2021/12/19 09:26:11;;;;;;;24.15;10.23;;;;;;;;;;5016016;28;20130;-80
2021/12/19 09:28:39;;;;;;;22.98;9.68;;;;;;;;;;5011488;28;20125;-81
2021/12/19 09:31:10;;;;;;;26.40;9.95;;;;;;;;;;4999092;28;20129;-81
2021/12/19 09:33:39;;;;;;;24.52;10.05;;;;;;;;;;5023625;28;20082;-79
2021/12/19 09:36:08;;;;;;;28.85;11.63;;;;;;;;;;5024363;28;20133;-82
2021/12/19 09:38:39;;;;;;;27.10;11.48;;;;;;;;;;5001102;28;20057;-81
2021/12/19 09:41:18;;;;;;;37.20;14.88;;;;;;;;;;5000066;28;20042;-81
2021/12/19 09:43:51;;;;;;;29.52;11.38;;;;;;;;;;5004462;28;20066;-88
2021/12/19 09:46:21;;;;;;;26.02;10.60;;;;;;;;;;5008961;28;20089;-83
2021/12/19 09:48:50;;;;;;;30.35;12.00;;;;;;;;;;5003988;28;20050;-80
2021/12/19 09:51:19;;;;;;;24.45;10.35;;;;;;;;;;5003083;28;20050;-85
2021/12/19 09:53:50;;;;;;;26.13;10.35;;;;;;;;;;5012714;28;20080;-83
2021/12/19 09:56:22;;;;;;;30.08;12.05;;;;;;;;;;5004517;28;20394;-85
2021/12/19 09:58:51;;;;;;;38.88;15.93;;;;;;;;;;5003028;28;20086;-84
2021/12/19 10:01:20;;;;;;;34.58;12.77;;;;;;;;;;5000583;28;20077;-81
2021/12/19 10:03:47;;;;;;;28.65;10.93;;;;;;;;;;4990723;28;20093;-84
2021/12/19 10:06:17;;;;;;;25.17;10.65;;;;;;;;;;4997656;28;20081;-80
2021/12/19 10:08:46;;;;;;;21.35;9.68;;;;;;;;;;5003609;28;20076;-88
2021/12/19 10:24:33;;;;;;;28.20;10.13;;;;;;;;;;5104200;27;20390;-79
2021/12/19 10:27:00;;;;;;;24.40;10.02;;;;;;;;;;5100235;28;20064;-79
2021/12/19 10:29:44;;;;;;;24.05;9.63;;;;;;;;;;5099803;28;20052;-82
2021/12/19 10:32:11;;;;;;;23.25;8.80;;;;;;;;;;5066600;28;20044;-81
2021/12/19 10:34:39;;;;;;;22.90;9.90;;;;;;;;;;5076634;28;20044;-79
2021/12/19 10:37:08;;;;;;;24.25;9.88;;;;;;;;;;5085450;28;20112;-79
2021/12/19 10:39:42;;;;;;;23.70;9.98;;;;;;;;;;5099464;28;20102;-81
2021/12/19 10:42:11;;;;;;;22.70;9.00;;;;;;;;;;5076753;28;20044;-82
2021/12/19 10:47:27;;;;;;;23.17;8.98;;;;;;;;;;5084522;28;20060;-82
2021/12/19 10:49:57;;;;;;;20.60;9.20;;;;;;;;;;5085176;28;20076;-80
2021/12/19 10:52:35;;;;;;;20.58;8.70;;;;;;;;;;5066817;28;20101;-80
2021/12/19 10:55:09;;;;;;;20.58;8.50;;;;;;;;;;5070393;28;20139;-80
2021/12/19 10:57:42;;;;;;;21.73;9.27;;;;;;;;;;5067174;28;20045;-81
2021/12/19 11:00:13;;;;;;;18.67;8.32;;;;;;;;;;5066394;28;20055;-82
2021/12/19 11:02:44;;;;;;;22.05;8.77;;;;;;;;;;5090601;28;20123;-81
2021/12/19 11:05:34;;;;;;;20.77;9.10;;;;;;;;;;5062687;28;20090;-80
2021/12/19 11:08:02;;;;;;;20.42;8.90;;;;;;;;;;5055874;28;20099;-82
2021/12/19 11:10:35;;;;;;;21.17;8.35;;;;;;;;;;5067613;28;20052;-81
2021/12/19 11:13:16;;;;;;;17.38;7.63;;;;;;;;;;5077438;28;20453;-81
2021/12/19 11:15:49;;;;;;;22.50;9.63;;;;;;;;;;5071092;28;20048;-84
2021/12/19 11:18:17;;;;;;;18.75;8.32;;;;;;;;;;5078157;28;20036;-83
2021/12/19 11:20:45;;;;;;;21.50;8.55;;;;;;;;;;5074134;28;20449;-82
2021/12/19 11:29:36;;;;;;;18.95;8.43;;;;;;;;;;5065689;23;20060;-81
2021/12/19 11:32:08;;;;;;;19.63;7.97;;;;;;;;;;5019716;28;20054;-81
2021/12/19 11:34:54;;;;;;;19.50;7.72;;;;;;;;;;5019823;28;20100;-82
2021/12/19 11:37:25;;;;;;;19.02;7.85;;;;;;;;;;5019634;28;20045;-83
2021/12/19 11:39:54;;;;;;;20.52;8.75;;;;;;;;;;5021148;28;20133;-79
2021/12/19 11:42:30;;;;;;;20.75;9.05;;;;;;;;;;5011076;28;22656;-78
2021/12/19 11:45:15;;;;;;;21.48;8.90;;;;;;;;;;5014356;28;20050;-78
2021/12/19 11:47:49;;;;;;;20.38;9.02;;;;;;;;;;5012369;28;20042;-80
2021/12/19 11:50:22;;;;;;;19.80;9.07;;;;;;;;;;5016202;28;20037;-78
2021/12/19 11:52:57;;;;;;;21.88;8.95;;;;;;;;;;5016784;28;20050;-79
2021/12/19 11:55:43;;;;;;;20.80;8.82;;;;;;;;;;5017630;28;20054;-82
2021/12/19 11:58:33;;;;;;;18.42;8.27;;;;;;;;;;5024063;28;20058;-83
2021/12/19 12:01:19;;;;;;;20.10;8.52;;;;;;;;;;5021464;28;20054;-80
2021/12/19 12:03:50;;;;;;;22.13;8.70;;;;;;;;;;5016613;28;20042;-80
2021/12/19 12:06:43;;;;;;;23.23;8.85;;;;;;;;;;5028234;28;20050;-81
2021/12/19 12:09:16;;;;;;;19.45;8.30;;;;;;;;;;5021753;28;20056;-80
2021/12/19 12:12:25;;;;;;;20.30;8.55;;;;;;;;;;5021271;28;20479;-80
2021/12/19 12:15:01;;;;;;;19.60;8.00;;;;;;;;;;5001166;28;20104;-80
2021/12/19 12:17:35;;;;;;;20.10;8.52;;;;;;;;;;5020727;28;20077;-81
2021/12/19 12:20:17;;;;;;;20.57;8.63;;;;;;;;;;5020158;28;20052;-81
2021/12/19 12:23:08;;;;;;;19.10;8.25;;;;;;;;;;5018969;28;20113;-80
2021/12/19 12:25:41;;;;;;;19.88;8.20;;;;;;;;;;5005361;28;20114;-82
2021/12/19 12:28:10;;;;;;;19.02;8.02;;;;;;;;;;5020885;28;20058;-81
2021/12/19 12:30:41;;;;;;;22.17;8.35;;;;;;;;;;5022109;28;20054;-81
2021/12/19 12:43:18;;;;;;;21.17;8.30;;;;;;;;;;5257244;23;20084;-90
2021/12/19 12:57:46;;;;;;;23.98;9.43;;;;;;;;;;5416381;23;20050;-89
2021/12/19 13:04:26;;;;;;;21.75;9.73;;;;;;;;;;5014233;28;20046;-87
2021/12/19 13:07:08;;;;;;;20.90;8.55;;;;;;;;;;5011091;28;20061;-85
2021/12/19 13:09:37;;;;;;;19.42;8.40;;;;;;;;;;5010172;28;20053;-84
2021/12/19 13:12:11;;;;;;;21.05;8.20;;;;;;;;;;5008980;28;20073;-84
2021/12/19 13:14:40;;;;;;;18.37;8.37;;;;;;;;;;5016156;28;20054;-85
2021/12/19 13:17:11;;;;;;;19.33;7.88;;;;;;;;;;5018792;28;20293;-86
2021/12/19 13:19:42;;;;;;;18.55;7.95;;;;;;;;;;5025395;28;20033;-86
2021/12/19 13:22:11;;;;;;;19.20;8.13;;;;;;;;;;5024991;28;20077;-85
2021/12/19 13:24:39;;;;;;;17.30;8.02;;;;;;;;;;5007471;28;20054;-85
2021/12/19 13:27:09;;;;;;;20.20;8.65;;;;;;;;;;5011025;28;20062;-85
2021/12/19 13:29:37;;;;;;;18.83;8.18;;;;;;;;;;5006040;28;20058;-85
2021/12/19 13:32:24;;;;;;;17.13;8.05;;;;;;;;;;5001444;28;20052;-84
2021/12/19 13:34:53;;;;;;;18.95;8.13;;;;;;;;;;5015912;28;20050;-86
2021/12/19 15:05:42;;;;;;;16.63;6.93;;;;;;;;;;5418477;23;20036;-88
2021/12/19 15:08:13;;;;;;;17.92;7.47;;;;;;;;;;5102992;23;20051;-89
2021/12/19 15:10:41;;;;;;;16.77;7.13;;;;;;;;;;4980235;28;20047;-90
2021/12/19 15:13:09;;;;;;;16.02;7.15;;;;;;;;;;4960897;29;20047;-90
2021/12/19 15:15:39;;;;;;;17.73;6.55;;;;;;;;;;4976540;29;20090;-89
2021/12/19 15:18:07;;;;;;;15.75;6.55;;;;;;;;;;4976491;29;20046;-89
2021/12/19 15:20:36;;;;;;;15.95;6.90;;;;;;;;;;4963590;29;20042;-88
2021/12/19 15:23:05;;;;;;;17.17;7.85;;;;;;;;;;4980253;28;20051;-89
2021/12/19 15:25:32;;;;;;;18.10;8.13;;;;;;;;;;4958946;29;20052;-89
2021/12/19 15:28:00;;;;;;;15.73;7.30;;;;;;;;;;4959859;29;20043;-88
2021/12/19 15:30:28;;;;;;;17.92;7.80;;;;;;;;;;4967550;29;20051;-87
2021/12/19 15:32:56;;;;;;;15.80;7.18;;;;;;;;;;4979891;28;20051;-87
2021/12/19 15:35:25;;;;;;;18.50;7.70;;;;;;;;;;4979798;28;20103;-89
2021/12/19 15:37:55;;;;;;;19.33;7.90;;;;;;;;;;4978214;29;20027;-88
2021/12/19 15:43:00;;;;;;;20.13;9.18;;;;;;;;;;5282868;23;20556;-87
2021/12/19 15:45:28;;;;;;;17.02;7.57;;;;;;;;;;4960464;29;20059;-89
2021/12/19 15:47:56;;;;;;;18.08;7.88;;;;;;;;;;4976573;28;20027;-82
2021/12/19 15:50:26;;;;;;;19.50;8.73;;;;;;;;;;4965727;29;20122;-83
2021/12/19 15:52:57;;;;;;;22.02;9.55;;;;;;;;;;4970945;28;20031;-87
2021/12/19 15:55:25;;;;;;;24.42;9.20;;;;;;;;;;4978123;28;20043;-89
2021/12/19 15:57:54;;;;;;;21.40;9.88;;;;;;;;;;4976038;29;20074;-88
2021/12/19 16:08:50;;;;;;;22.30;9.40;;;;;;;;;;5029761;23;20039;-88
2021/12/19 16:11:18;;;;;;;19.58;8.52;;;;;;;;;;4962063;29;20053;-89
2021/12/19 16:13:45;;;;;;;34.28;14.90;;;;;;;;;;4975517;29;20074;-88
2021/12/19 16:16:17;;;;;;;28.98;11.70;;;;;;;;;;4974844;29;20051;-88
2021/12/19 16:18:45;;;;;;;25.05;10.40;;;;;;;;;;4971277;29;20047;-88
2021/12/19 16:26:36;;;;;;;20.23;9.18;;;;;;;;;;5019898;23;20060;-89
2021/12/19 16:29:19;;;;;;;22.60;9.90;;;;;;;;;;4956424;29;20056;-87
2021/12/19 16:31:50;;;;;;;18.35;8.20;;;;;;;;;;4960326;29;20063;-88
2021/12/19 16:34:18;;;;;;;16.45;7.78;;;;;;;;;;4959693;29;20047;-88
2021/12/19 16:42:10;;;;;;;17.38;7.47;;;;;;;;;;5578804;23;20042;-89
2021/12/19 16:44:41;;;;;;;23.33;9.57;;;;;;;;;;4963496;29;20127;-92
2021/12/19 16:47:10;;;;;;;20.50;8.98;;;;;;;;;;4925678;29;20167;-86
2021/12/19 16:49:38;;;;;;;21.98;9.32;;;;;;;;;;4974518;28;20071;-88
2021/12/19 16:52:07;;;;;;;20.83;9.25;;;;;;;;;;4966242;28;20042;-89
2021/12/19 16:54:35;;;;;;;21.67;9.38;;;;;;;;;;4996181;28;20082;-91
2021/12/19 16:57:06;;;;;;;21.27;9.20;;;;;;;;;;5112034;23;20108;-89
2021/12/19 16:59:35;;;;;;;19.55;8.80;;;;;;;;;;4947164;29;20056;-82
2021/12/19 17:02:03;;;;;;;20.30;9.02;;;;;;;;;;4948208;29;20474;-84
2021/12/19 17:04:31;;;;;;;22.98;8.93;;;;;;;;;;4942973;29;20074;-81
2021/12/19 17:06:59;;;;;;;19.05;9.25;;;;;;;;;;4938300;29;20142;-81
2021/12/19 17:09:26;;;;;;;19.63;8.98;;;;;;;;;;4940494;29;20134;-86
2021/12/19 17:11:59;;;;;;;18.55;8.50;;;;;;;;;;4942422;29;20071;-85
2021/12/19 17:14:26;;;;;;;19.25;8.43;;;;;;;;;;4941186;29;20082;-86
2021/12/19 17:16:55;;;;;;;18.25;8.30;;;;;;;;;;4947991;29;20075;-85
2021/12/19 17:19:23;;;;;;;19.75;9.32;;;;;;;;;;4940950;29;20048;-83
2021/12/19 17:21:52;;;;;;;19.88;8.93;;;;;;;;;;4945320;29;20138;-83
2021/12/19 17:24:20;;;;;;;18.33;8.55;;;;;;;;;;4941117;29;20048;-83
2021/12/19 17:26:48;;;;;;;18.20;8.75;;;;;;;;;;4956297;29;20488;-84
2021/12/19 17:29:17;;;;;;;20.88;9.25;;;;;;;;;;4952902;29;20069;-84
2021/12/19 17:31:44;;;;;;;18.10;8.38;;;;;;;;;;4943820;29;20134;-84
2021/12/19 17:34:13;;;;;;;18.52;9.05;;;;;;;;;;4928570;29;20048;-86
2021/12/19 17:36:40;;;;;;;18.75;8.48;;;;;;;;;;4939761;29;20571;-82
2021/12/19 17:39:11;;;;;;;21.63;9.18;;;;;;;;;;4939063;29;20130;-90
2021/12/19 17:41:40;;;;;;;18.88;8.32;;;;;;;;;;4942728;29;20043;-85
2021/12/19 17:44:08;;;;;;;18.13;8.15;;;;;;;;;;4938780;29;20573;-83
2021/12/19 17:49:38;;;;;;;20.08;9.23;;;;;;;;;;4953360;29;20070;-87
2021/12/19 17:52:10;;;;;;;19.55;9.23;;;;;;;;;;4943596;29;20051;-84
2021/12/19 17:54:40;;;;;;;20.00;9.48;;;;;;;;;;4940633;29;20099;-87
2021/12/19 17:57:07;;;;;;;18.58;9.20;;;;;;;;;;4939037;29;20063;-85
2021/12/19 17:59:35;;;;;;;22.00;9.35;;;;;;;;;;4941630;29;20253;-87
2021/12/19 18:02:05;;;;;;;21.73;9.57;;;;;;;;;;4945682;29;20078;-86
2021/12/19 18:04:39;;;;;;;19.83;9.65;;;;;;;;;;4945869;29;20052;-84
2021/12/19 18:07:08;;;;;;;20.23;9.77;;;;;;;;;;4935329;29;20412;-81
2021/12/19 18:09:39;;;;;;;21.08;10.00;;;;;;;;;;4939655;28;20131;-82
2021/12/19 18:12:09;;;;;;;20.73;9.05;;;;;;;;;;4934624;29;20051;-80
2021/12/19 18:14:36;;;;;;;21.27;9.43;;;;;;;;;;4935179;29;20051;-80
2021/12/19 18:17:04;;;;;;;23.05;10.00;;;;;;;;;;4934132;29;20058;-81
2021/12/19 18:19:32;;;;;;;21.95;10.07;;;;;;;;;;4933109;29;20138;-81
2021/12/19 18:21:59;;;;;;;22.08;10.68;;;;;;;;;;4933481;29;20134;-81
2021/12/19 18:24:30;;;;;;;20.25;9.27;;;;;;;;;;4947078;29;20056;-89
2021/12/19 18:27:00;;;;;;;19.20;9.65;;;;;;;;;;4947665;29;20161;-90
2021/12/19 18:29:36;;;;;;;23.95;10.77;;;;;;;;;;4952758;29;20052;-89
2021/12/19 18:32:06;;;;;;;19.67;9.15;;;;;;;;;;4956122;29;20128;-90
2021/12/19 18:34:39;;;;;;;21.10;10.27;;;;;;;;;;4959235;29;20140;-89
2021/12/19 18:37:14;;;;;;;20.75;10.15;;;;;;;;;;4959988;29;20047;-87
2021/12/19 18:39:47;;;;;;;;;;;;;;;;;;4935915;29;20098;-88
2021/12/19 18:42:48;;;;;;;16.33;8.25;;;;;;;;;;4956653;29;19982;-83
2021/12/19 18:45:28;;;;;;;19.52;8.93;;;;;;;;;;4955218;29;20047;-85
2021/12/19 18:48:04;;;;;;;19.48;8.80;;;;;;;;;;4949307;29;20055;-84
2021/12/19 18:50:40;;;;;;;18.98;9.13;;;;;;;;;;4948492;29;20082;-85
2021/12/19 18:56:43;;;;;;;17.13;8.77;;;;;;;;;;4906949;28;20071;-87
2021/12/19 18:59:15;;;;;;;16.23;8.38;;;;;;;;;;4963433;29;20110;-82
2021/12/19 19:01:48;;;;;;;15.70;8.02;;;;;;;;;;4954080;29;20040;-82
2021/12/19 19:04:22;;;;;;;16.05;7.78;;;;;;;;;;4942055;29;20147;-83
2021/12/19 19:06:57;;;;;;;14.52;7.63;;;;;;;;;;4938370;29;20525;-82
2021/12/19 19:09:27;;;;;;;17.13;7.53;;;;;;;;;;4921727;29;20689;-80
2021/12/19 19:11:55;;;;;;;16.40;7.60;;;;;;;;;;4919598;29;20332;-82
2021/12/19 19:14:24;;;;;;;15.50;7.75;;;;;;;;;;4940660;29;20051;-82
2021/12/19 19:16:53;;;;;;;15.50;7.65;;;;;;;;;;4937849;29;20058;-77
2021/12/19 19:19:21;;;;;;;14.50;7.20;;;;;;;;;;4936775;29;20548;-81
2021/12/19 19:21:50;;;;;;;14.88;7.28;;;;;;;;;;4943585;29;20075;-88
2021/12/19 19:24:18;;;;;;;14.30;7.53;;;;;;;;;;4955005;29;20048;-88
2021/12/19 19:26:47;;;;;;;15.05;7.20;;;;;;;;;;4949748;29;20062;-88
2021/12/19 19:29:20;;;;;;;13.95;7.32;;;;;;;;;;4951860;29;20118;-90
2021/12/19 19:31:48;;;;;;;15.88;7.95;;;;;;;;;;4921894;29;20058;-81
2021/12/19 19:34:18;;;;;;;29.83;13.85;;;;;;;;;;4938740;29;20056;-84
2021/12/19 19:36:50;;;;;;;27.23;11.95;;;;;;;;;;4939356;29;20489;-83
2021/12/19 19:42:14;;;;;;;18.30;8.93;;;;;;;;;;4934340;29;20138;-85
2021/12/19 19:50:18;;;;;;;17.00;7.85;;;;;;;;;;4916354;29;20530;-80
2021/12/19 19:52:46;;;;;;;16.38;8.32;;;;;;;;;;4930689;29;20052;-80
2021/12/19 19:55:14;;;;;;;15.63;8.27;;;;;;;;;;4937748;29;20931;-85
2021/12/19 19:57:42;;;;;;;15.68;8.20;;;;;;;;;;4939953;29;20111;-84
2021/12/19 20:00:11;;;;;;;16.67;8.45;;;;;;;;;;4938585;29;20119;-82
2021/12/19 20:02:38;;;;;;;19.17;9.13;;;;;;;;;;4936971;29;20135;-82
2021/12/19 20:05:07;;;;;;;15.45;8.32;;;;;;;;;;4935408;29;20107;-83
2021/12/19 20:07:36;;;;;;;18.30;8.85;;;;;;;;;;4935714;29;20130;-84
2021/12/19 20:10:05;;;;;;;17.38;8.57;;;;;;;;;;4935120;29;20091;-82
2021/12/19 20:12:32;;;;;;;18.52;9.60;;;;;;;;;;4936549;29;20054;-83
2021/12/19 20:15:00;;;;;;;19.95;10.27;;;;;;;;;;4936478;29;20134;-82
2021/12/19 20:17:28;;;;;;;19.60;10.18;;;;;;;;;;4915788;29;20066;-82
2021/12/19 20:19:56;;;;;;;20.00;10.45;;;;;;;;;;4916964;29;20054;-81
2021/12/19 20:22:24;;;;;;;20.67;10.65;;;;;;;;;;4934046;29;20075;-80
2021/12/19 20:24:52;;;;;;;19.23;9.63;;;;;;;;;;4936872;29;20058;-83
2021/12/19 20:27:21;;;;;;;18.65;9.68;;;;;;;;;;4936542;29;20512;-82
2021/12/19 20:29:49;;;;;;;22.60;10.43;;;;;;;;;;4935962;29;20099;-83
2021/12/19 20:32:16;;;;;;;19.27;9.35;;;;;;;;;;4935178;29;20052;-84
2021/12/19 20:34:44;;;;;;;17.73;9.40;;;;;;;;;;4937180;29;20565;-82
2021/12/19 20:37:11;;;;;;;19.15;9.32;;;;;;;;;;4935345;29;20437;-82
2021/12/19 20:39:39;;;;;;;16.83;8.60;;;;;;;;;;4932030;29;20964;-81
2021/12/19 20:42:08;;;;;;;17.17;8.73;;;;;;;;;;4930515;29;20048;-82
2021/12/19 20:44:36;;;;;;;18.55;9.20;;;;;;;;;;4934711;29;20489;-82
2021/12/19 20:47:04;;;;;;;20.30;9.75;;;;;;;;;;4944698;29;20122;-81
2021/12/19 20:49:32;;;;;;;18.13;9.25;;;;;;;;;;4935750;29;20082;-82
2021/12/19 20:52:00;;;;;;;18.63;9.05;;;;;;;;;;4935097;29;20077;-83
2021/12/19 20:54:28;;;;;;;17.30;9.23;;;;;;;;;;4936412;29;20043;-81
2021/12/19 20:56:55;;;;;;;20.05;10.13;;;;;;;;;;4935053;29;20232;-82
2021/12/19 20:59:26;;;;;;;19.65;10.02;;;;;;;;;;4935942;29;20051;-82
2021/12/19 21:01:54;;;;;;;20.38;9.63;;;;;;;;;;4935227;29;20056;-81
2021/12/19 21:04:21;;;;;;;20.38;10.00;;;;;;;;;;4934759;29;20098;-84
2021/12/19 21:06:49;;;;;;;20.10;10.52;;;;;;;;;;4943240;29;20481;-83
2021/12/19 21:09:20;;;;;;;18.75;9.43;;;;;;;;;;4942391;29;20051;-81
2021/12/19 21:11:48;;;;;;;19.85;10.07;;;;;;;;;;4925853;29;20497;-82
2021/12/19 21:14:31;;;;;;;20.95;10.75;;;;;;;;;;4935459;29;20051;-84
2021/12/19 21:19:56;;;;;;;22.90;11.43;;;;;;;;;;4878642;29;20758;-84
2021/12/19 21:22:24;;;;;;;28.17;12.82;;;;;;;;;;4922378;29;20074;-87
2021/12/19 21:24:51;;;;;;;26.60;12.55;;;;;;;;;;4935837;29;20051;-85
2021/12/19 21:27:21;;;;;;;22.50;11.07;;;;;;;;;;4935885;29;20059;-87
2021/12/19 21:29:51;;;;;;;21.30;10.57;;;;;;;;;;4939987;29;20059;-87
2021/12/19 21:32:21;;;;;;;22.13;10.95;;;;;;;;;;4938276;29;20371;-87
2021/12/19 21:35:07;;;;;;;21.80;11.35;;;;;;;;;;4937171;28;20454;-86
2021/12/19 21:40:21;;;;;;;21.52;11.23;;;;;;;;;;4937018;29;20059;-86
2021/12/19 21:42:49;;;;;;;22.33;11.25;;;;;;;;;;4939689;29;20482;-85
2021/12/19 21:45:17;;;;;;;24.58;11.02;;;;;;;;;;4937559;29;20094;-84
2021/12/19 21:47:46;;;;;;;24.45;12.23;;;;;;;;;;4937987;29;20469;-87
2021/12/19 21:50:13;;;;;;;22.25;11.63;;;;;;;;;;4939427;29;20539;-84
2021/12/19 21:52:42;;;;;;;23.45;11.45;;;;;;;;;;4938489;29;20048;-85
2021/12/19 21:55:11;;;;;;;22.77;10.95;;;;;;;;;;4939005;29;20051;-84
2021/12/19 21:57:39;;;;;;;24.73;12.00;;;;;;;;;;4940003;29;20058;-85
2021/12/19 22:00:10;;;;;;;24.02;11.70;;;;;;;;;;4940259;29;20079;-86
2021/12/19 22:02:39;;;;;;;22.98;11.75;;;;;;;;;;4939000;29;20111;-86
2021/12/19 22:05:09;;;;;;;22.67;11.15;;;;;;;;;;4937025;29;20498;-87
2021/12/19 22:07:36;;;;;;;22.88;10.95;;;;;;;;;;4934664;29;20134;-87
2021/12/19 22:10:07;;;;;;;22.75;11.25;;;;;;;;;;4948986;29;20075;-87
2021/12/19 22:12:42;;;;;;;22.48;11.48;;;;;;;;;;4952677;29;20054;-87
2021/12/19 22:15:28;;;;;;;22.60;11.93;;;;;;;;;;4953867;29;20052;-88
2021/12/19 22:17:57;;;;;;;20.50;10.65;;;;;;;;;;4952669;29;20119;-86
2021/12/19 22:20:29;;;;;;;24.23;11.73;;;;;;;;;;4956915;29;20075;-88
2021/12/19 22:22:57;;;;;;;22.40;10.85;;;;;;;;;;4952777;29;20048;-89
2021/12/19 22:25:25;;;;;;;20.50;10.02;;;;;;;;;;4951955;29;20050;-88
2021/12/19 22:27:54;;;;;;;21.48;11.60;;;;;;;;;;4951610;29;20080;-88
2021/12/19 22:30:22;;;;;;;22.23;10.90;;;;;;;;;;4951418;29;20071;-88
2021/12/19 22:32:49;;;;;;;18.27;10.38;;;;;;;;;;4944682;29;20082;-84
2021/12/19 22:35:17;;;;;;;18.95;9.65;;;;;;;;;;4944275;29;20068;-85
2021/12/19 22:37:46;;;;;;;20.85;9.82;;;;;;;;;;4940072;29;20115;-87
2021/12/19 22:40:15;;;;;;;18.30;10.13;;;;;;;;;;4943210;29;20044;-85
2021/12/19 22:42:44;;;;;;;21.20;10.18;;;;;;;;;;4944816;29;20520;-83
2021/12/19 22:45:12;;;;;;;18.80;9.57;;;;;;;;;;4945729;29;20131;-83
2021/12/19 22:47:40;;;;;;;18.73;9.15;;;;;;;;;;4945004;29;20160;-84
2021/12/19 22:50:10;;;;;;;19.58;10.00;;;;;;;;;;4946494;29;20079;-83
2021/12/19 22:52:37;;;;;;;19.67;10.30;;;;;;;;;;4946933;29;20079;-83
2021/12/19 22:55:07;;;;;;;20.83;10.75;;;;;;;;;;4949786;29;20059;-85
2021/12/19 22:57:35;;;;;;;19.35;9.25;;;;;;;;;;4946408;29;20103;-86
2021/12/19 23:00:04;;;;;;;18.20;9.02;;;;;;;;;;4947181;29;20086;-85
2021/12/19 23:02:33;;;;;;;19.67;9.93;;;;;;;;;;4948011;29;20071;-85
2021/12/19 23:05:00;;;;;;;20.13;10.00;;;;;;;;;;4946126;29;20044;-85
2021/12/19 23:07:28;;;;;;;20.17;9.57;;;;;;;;;;4945245;29;20091;-84
2021/12/19 23:09:55;;;;;;;22.80;10.20;;;;;;;;;;4946119;29;20067;-84
2021/12/19 23:12:27;;;;;;;20.50;10.30;;;;;;;;;;4947676;29;20090;-85
2021/12/19 23:14:55;;;;;;;18.10;9.70;;;;;;;;;;4948969;29;20047;-86
2021/12/19 23:17:51;;;;;;;21.45;10.43;;;;;;;;;;4945946;29;20079;-87
2021/12/19 23:20:12;;;;;;;18.85;9.18;;;;;;;;;;4953450;29;20051;-85
2021/12/19 23:22:40;;;;;;;17.67;9.50;;;;;;;;;;4955370;29;20063;-87
2021/12/19 23:25:09;;;;;;;20.52;9.70;;;;;;;;;;4951103;29;20048;-86
2021/12/19 23:27:38;;;;;;;21.15;9.55;;;;;;;;;;4956839;29;20082;-85
2021/12/19 23:30:09;;;;;;;19.95;9.65;;;;;;;;;;4957151;29;20032;-87
2021/12/19 23:32:50;;;;;;;20.05;10.65;;;;;;;;;;4957366;29;20063;-86
2021/12/19 23:35:19;;;;;;;18.95;9.60;;;;;;;;;;4958306;29;20541;-87
2021/12/19 23:37:56;;;;;;;18.40;8.85;;;;;;;;;;4956541;29;20043;-86
2021/12/19 23:45:44;;;;;;;;;;;;;;;;;;4959044;29;20141;-88
2021/12/19 23:48:12;;;;;;;18.52;8.77;;;;;;;;;;4961719;29;19929;-89
2021/12/19 23:50:42;;;;;;;18.85;9.20;;;;;;;;;;5079408;23;20051;-84